Terminal Aerodrome Forecast
Issued by NWS

Home | Current Version | Previous Version | Text Only | Print | Product List | Glossary On
Versions: 1 2 3 4 5 6 7 8 9 10 11 12 13 14 15 16 17 18 19 20 21 22 23 24 25 26
000
FTUS41 KALY 310520
TAFPSF
TAF
KPSF 310520Z 3106/0106 00000KT 4SM BR SCT002
      TEMPO 3106/3108 2SM BR VV006
     FM310800 00000KT 4SM BR SCT006
      TEMPO 3108/3111 1/2SM FG VV004
     FM311200 27004KT P6SM SKC
     FM311700 28010KT P6SM SCT050 SCT250
     FM010000 27003KT P6SM SKC
     FM010200 00000KT 3SM BR SKC=

USA.gov is the U.S. government's official web portal to all federal, state and local government web resources and services.